Time;durP1;ratioP1;P1;durP2;ratioP2;P2;SDS_P1;SDS_P2;PMS_P1;PMS_P2;Temp;Humidity;BMP_temperature;BMP_pressure;BME280_temperature;BME280_humidity;BME280_pressure;Samples;Min_cycle;Max_cycle;Signal;HPM_P1;HPM_P2
2024/02/07 00:15:01;;;;;;;4.00;2.70;;;;;;;8.50;72.95;97212.74;437518;1250;110427;-40
2024/02/07 00:25:09;;;;;;;4.50;2.20;;;;;;;8.50;72.54;97192.41;437425;1248;108612;-41
2024/02/07 00:35:15;;;;;;;8.30;2.50;;;;;;;8.51;72.54;97189.05;437551;1247;97858;-39
2024/02/07 00:45:22;;;;;;;4.20;2.20;;;;;;;8.42;72.81;97187.92;437647;1248;110719;-39
2024/02/07 00:55:29;;;;;;;5.90;2.20;;;;;;;8.37;72.63;97179.46;437543;1248;109301;-39
2024/02/07 01:05:36;;;;;;;7.00;1.40;;;;;;;8.37;72.89;97176.52;437553;1248;97886;-40
2024/02/07 01:25:50;;;;;;;3.20;1.90;;;;;;;8.43;73.11;97153.73;437541;1248;97466;-41
2024/02/07 01:35:58;;;;;;;3.50;1.80;;;;;;;8.34;73.09;97146.40;437649;1248;109805;-40
2024/02/07 01:46:06;;;;;;;6.20;2.00;;;;;;;8.26;73.30;97135.98;437311;1250;109398;-40
2024/02/07 01:56:13;;;;;;;5.40;1.20;;;;;;;8.33;73.42;97125.58;437578;1248;96683;-39
2024/02/07 02:06:20;;;;;;;7.80;1.80;;;;;;;8.38;73.47;97123.21;437556;1250;109436;-41
2024/02/07 02:16:27;;;;;;;5.10;1.70;;;;;;;8.38;73.23;97108.61;439106;1250;108101;-40
2024/02/07 02:26:53;;;;;;;3.30;1.30;;;;;;;8.35;73.25;97088.73;436263;1251;98435;-39
2024/02/07 02:37:00;;;;;;;5.30;2.30;;;;;;;8.37;73.31;97072.52;436824;1253;108246;-39
2024/02/07 02:47:07;;;;;;;8.30;1.70;;;;;;;8.30;73.30;97068.30;436455;1253;98013;-40
2024/02/07 02:57:16;;;;;;;3.00;1.60;;;;;;;8.25;73.29;97060.92;436463;1250;109799;-40
2024/02/07 03:17:42;;;;;;;7.90;1.70;;;;;;;8.14;74.09;97046.42;436303;1249;97973;-40
2024/02/07 03:48:04;;;;;;;6.10;2.50;;;;;;;8.09;74.32;96994.38;436195;1253;97989;-40
2024/02/07 03:58:12;;;;;;;3.40;1.40;;;;;;;8.07;74.26;96987.05;436338;1250;109748;-41
2024/02/07 04:08:20;;;;;;;5.00;2.60;;;;;;;8.14;74.13;96984.35;435929;1251;480073;-41
2024/02/07 05:20:55;;;;;;;4.80;2.20;;;;;;;8.06;75.00;96914.27;436349;1253;97903;-39
2024/02/07 05:41:09;;;;;;;5.00;1.40;;;;;;;7.76;76.61;96902.40;436293;1253;108672;-40
2024/02/07 05:51:20;;;;;;;5.20;2.40;;;;;;;7.69;77.20;96895.63;436314;1253;97893;-40
2024/02/07 06:11:34;;;;;;;1.90;1.60;;;;;;;7.47;78.24;96894.94;436920;1253;97449;-39
2024/02/07 06:21:41;;;;;;;7.90;3.40;;;;;;;7.39;79.13;96892.95;436334;1253;109790;-41
2024/02/07 06:41:55;;;;;;;10.10;3.30;;;;;;;7.17;80.26;96892.55;436303;1254;97391;-39
2024/02/07 06:52:02;;;;;;;6.70;2.70;;;;;;;7.13;80.87;96899.05;436232;1247;110567;-39
2024/02/07 07:02:08;;;;;;;8.20;3.20;;;;;;;7.15;81.16;96886.02;436316;1254;108145;-39
2024/02/07 07:12:14;;;;;;;7.10;3.00;;;;;;;7.15;81.93;96881.23;436511;1250;97235;-38
2024/02/07 07:22:20;;;;;;;7.80;3.90;;;;;;;7.12;82.24;96879.59;436268;1253;108033;-40
2024/02/07 07:32:27;;;;;;;6.10;4.00;;;;;;;7.16;82.47;96884.71;436305;1253;96628;-40
2024/02/07 07:52:41;;;;;;;10.20;4.10;;;;;;;7.29;83.30;96885.59;436520;1254;107212;-40
2024/02/07 08:02:48;;;;;;;11.40;5.40;;;;;;;7.30;83.50;96884.66;436384;1254;98540;-39
2024/02/07 08:12:56;;;;;;;7.40;3.90;;;;;;;7.36;83.44;96876.67;436233;1260;110806;-39
2024/02/07 08:23:03;;;;;;;10.60;7.50;;;;;;;7.43;83.68;96872.52;436254;1261;107316;-39
2024/02/07 08:33:09;;;;;;;12.00;4.80;;;;;;;7.43;83.96;96859.89;436315;1253;96647;-39
2024/02/07 08:43:16;;;;;;;5.20;2.60;;;;;;;7.36;84.39;96843.97;436427;1248;110462;-40
2024/02/07 08:53:21;;;;;;;8.00;3.70;;;;;;;7.32;84.62;96836.09;436247;1261;107718;-39
2024/02/07 09:03:28;;;;;;;10.50;3.70;;;;;;;7.35;84.71;96817.98;436393;1261;96935;-37
2024/02/07 09:13:35;;;;;;;9.10;2.90;;;;;;;7.30;84.89;96821.83;436266;1248;107344;-40
2024/02/07 09:23:42;;;;;;;5.60;3.40;;;;;;;7.30;84.87;96818.61;436743;1253;96913;-39
2024/02/07 09:43:56;;;;;;;7.20;4.10;;;;;;;7.27;84.42;96826.33;436199;1251;107418;-38
2024/02/07 09:54:04;;;;;;;8.40;4.10;;;;;;;7.37;84.39;96813.63;436379;1253;97880;-40
2024/02/07 10:14:15;;;;;;;6.80;4.00;;;;;;;7.33;84.28;96847.88;436351;1251;97849;-39
2024/02/07 10:24:22;;;;;;;9.40;4.10;;;;;;;7.19;84.52;96849.15;436228;1261;110306;-40
2024/02/07 10:34:29;;;;;;;9.50;4.80;;;;;;;7.21;84.71;96848.32;436260;1261;108368;-39
2024/02/07 10:44:36;;;;;;;12.50;6.70;;;;;;;7.27;84.81;96868.02;436451;1260;97817;-39
2024/02/07 11:04:47;;;;;;;8.40;4.30;;;;;;;6.13;84.96;96971.21;436275;1250;97867;-38
2024/02/07 11:14:56;;;;;;;3.50;2.30;;;;;;;5.23;85.79;96990.27;436339;1253;110448;-40
2024/02/07 11:25:03;;;;;;;2.50;2.00;;;;;;;4.90;86.19;96998.36;436275;1254;108759;-39
2024/02/07 11:35:12;;;;;;;3.50;1.70;;;;;;;4.59;87.20;97009.16;436271;1253;97430;-39
2024/02/07 11:45:20;;;;;;;8.30;4.20;;;;;;;4.49;87.86;97013.82;436345;1255;107186;-39
2024/02/07 11:55:26;;;;;;;5.80;3.20;;;;;;;4.38;88.17;97023.64;436410;1251;97884;-39
2024/02/07 12:05:32;;;;;;;2.80;1.70;;;;;;;4.30;88.98;97021.80;436370;1254;110486;-39
2024/02/07 12:25:55;;;;;;;2.70;1.40;;;;;;;4.10;89.70;97019.20;436205;1252;97881;-39
2024/02/07 12:36:00;;;;;;;3.10;1.80;;;;;;;4.03;90.53;97030.86;436217;1251;107599;-39
2024/02/07 12:46:07;;;;;;;2.40;1.30;;;;;;;3.91;90.41;97038.21;436245;1252;97888;-40
2024/02/07 13:16:32;;;;;;;1.40;1.20;;;;;;;3.67;90.06;97071.27;436078;1254;97908;-40
2024/02/07 13:26:39;;;;;;;3.80;2.20;;;;;;;3.54;90.20;97087.39;436319;1254;106716;-40
2024/02/07 13:36:47;;;;;;;5.80;2.40;;;;;;;3.43;90.34;97088.62;436058;1261;98215;-38
2024/02/07 13:46:54;;;;;;;3.90;2.00;;;;;;;3.44;90.21;97095.81;436305;1251;112072;-39
2024/02/07 14:07:04;;;;;;;8.20;3.20;;;;;;;3.57;90.37;97109.70;436242;1253;97883;-39
2024/02/07 14:17:12;;;;;;;9.90;5.00;;;;;;;3.49;90.35;97107.91;436261;1247;107420;-40
2024/02/07 14:37:26;;;;;;;7.10;5.40;;;;;;;3.46;90.07;97107.11;436133;1253;111618;-38
2024/02/07 14:57:34;;;;;;;10.20;7.10;;;;;;;3.32;90.45;97092.35;436261;1253;97864;-39
2024/02/07 15:17:47;;;;;;;11.60;5.10;;;;;;;3.22;90.45;97126.30;436182;1252;108160;-41
2024/02/07 15:27:54;;;;;;;6.50;3.00;;;;;;;3.28;90.47;97114.72;436424;1251;97909;-39
2024/02/07 15:38:02;;;;;;;5.70;4.60;;;;;;;3.21;90.55;97132.91;436268;1249;108623;-39
2024/02/07 15:48:08;;;;;;;5.20;3.80;;;;;;;3.23;90.52;97148.11;436303;1254;97871;-39
2024/02/07 15:58:18;;;;;;;7.90;4.30;;;;;;;3.18;90.74;97149.66;436358;1251;109771;-39
2024/02/07 16:08:24;;;;;;;17.20;8.70;;;;;;;3.08;90.66;97144.63;435921;1250;661679;-40
2024/02/07 16:28:40;;;;;;;7.50;5.20;;;;;;;3.02;90.77;97191.80;436246;1253;108828;-38
2024/02/07 16:38:47;;;;;;;8.00;4.20;;;;;;;3.12;90.95;97199.52;436204;1253;97932;-40
2024/02/07 16:48:54;;;;;;;6.50;5.50;;;;;;;3.10;90.83;97215.08;436206;1253;111787;-39
2024/02/07 16:59:02;;;;;;;7.20;4.10;;;;;;;2.97;90.90;97220.35;436525;1249;120635;-37
2024/02/07 17:09:10;;;;;;;5.10;3.50;;;;;;;2.99;91.06;97215.59;436458;1253;96622;-40
2024/02/07 17:19:17;;;;;;;6.80;4.00;;;;;;;3.02;90.79;97213.79;436190;1253;108091;-43
2024/02/07 17:29:24;;;;;;;4.70;3.80;;;;;;;3.10;90.97;97214.36;436299;1250;97884;-39
2024/02/07 17:39:33;;;;;;;6.10;5.50;;;;;;;3.14;91.17;97223.16;436307;1255;109684;-39
2024/02/07 17:49:46;;;;;;;6.20;4.80;;;;;;;3.11;91.02;97233.60;436393;1249;107157;-39
2024/02/07 17:59:53;;;;;;;9.20;4.70;;;;;;;3.01;91.32;97250.39;436396;1252;97916;-39
2024/02/07 18:10:01;;;;;;;5.10;4.10;;;;;;;2.95;91.48;97252.09;436406;1253;111572;-39
2024/02/07 18:20:10;;;;;;;7.20;5.00;;;;;;;2.96;91.46;97261.94;436325;1253;107354;-39
2024/02/07 18:40:26;;;;;;;5.00;3.60;;;;;;;3.02;91.63;97268.86;436335;1253;108388;-40
2024/02/07 18:50:33;;;;;;;10.30;4.80;;;;;;;3.00;91.63;97265.86;436389;1250;97482;-40
2024/02/07 19:00:40;;;;;;;11.40;4.90;;;;;;;2.88;91.64;97272.85;436369;1253;111664;-39
2024/02/07 19:10:47;;;;;;;6.90;4.20;;;;;;;2.84;91.63;97276.30;436357;1251;107829;-39
2024/02/07 19:20:55;;;;;;;9.40;5.60;;;;;;;2.88;91.81;97285.42;436340;1253;97451;-38
2024/02/07 19:31:02;;;;;;;15.50;6.60;;;;;;;2.92;91.70;97303.59;436345;1250;110830;-39
2024/02/07 19:41:10;;;;;;;14.00;8.00;;;;;;;2.89;91.67;97312.45;436501;1253;108428;-45
2024/02/07 19:51:19;;;;;;;28.00;15.40;;;;;;;2.82;91.81;97307.72;436477;1251;97882;-39
2024/02/07 20:01:26;;;;;;;14.70;8.90;;;;;;;2.85;91.53;97303.08;436263;1252;110587;-39
2024/02/07 20:11:33;;;;;;;11.80;7.90;;;;;;;2.86;91.23;97315.20;436397;1254;107771;-40
2024/02/07 20:21:41;;;;;;;10.40;6.70;;;;;;;2.87;91.41;97334.43;436307;1251;97855;-39
2024/02/07 20:52:02;;;;;;;10.50;5.80;;;;;;;2.68;91.18;97346.98;436340;1252;97957;-39
2024/02/07 21:02:08;;;;;;;21.30;12.50;;;;;;;2.71;91.23;97360.08;436415;1254;112539;-40
2024/02/07 21:22:21;;;;;;;15.90;7.40;;;;;;;2.56;91.36;97366.88;436478;1252;96700;-38
2024/02/07 21:32:28;;;;;;;17.50;9.30;;;;;;;2.38;91.33;97371.41;436445;1248;110339;-39
2024/02/07 21:42:36;;;;;;;8.00;5.40;;;;;;;2.31;91.28;97382.32;436377;1248;107910;-39
2024/02/07 22:02:49;;;;;;;11.30;5.40;;;;;;;2.20;91.10;97392.52;436420;1253;110877;-39
2024/02/07 22:12:56;;;;;;;15.60;8.00;;;;;;;2.12;91.07;97395.27;436409;1248;109458;-40
2024/02/07 22:23:04;;;;;;;11.70;7.40;;;;;;;1.95;91.11;97394.67;436463;1251;96584;-39
2024/02/07 22:33:13;;;;;;;13.00;7.10;;;;;;;1.77;91.05;97397.05;436345;1253;110933;-40
2024/02/07 22:43:20;;;;;;;14.70;7.00;;;;;;;1.73;90.91;97408.85;436403;1253;107944;-39
2024/02/07 22:53:32;;;;;;;10.50;5.70;;;;;;;1.74;90.95;97420.14;436360;1253;100164;-40
2024/02/07 23:03:39;;;;;;;17.20;8.60;;;;;;;1.75;90.77;97427.20;436431;1253;109095;-38
2024/02/07 23:13:47;;;;;;;17.40;7.20;;;;;;;1.77;91.24;97436.46;436336;1253;107855;-38
2024/02/07 23:23:54;;;;;;;15.10;5.90;;;;;;;1.76;91.06;97439.83;436376;1253;97887;-40
2024/02/07 23:34:01;;;;;;;19.60;7.20;;;;;;;1.62;90.83;97444.69;436516;1253;110524;-39
2024/02/07 23:44:07;;;;;;;16.20;7.60;;;;;;;1.62;90.96;97440.31;436283;1253;108354;-39
2024/02/07 23:54:15;;;;;;;14.10;5.70;;;;;;;1.67;90.76;97440.25;436441;1253;97466;-40
